sensor_id;sensor_type;location;lat;lon;timestamp;pressure;altitude;pressure_sealevel;temperature;humidity
21730;BME280;11027;51.030;13.812;2022-11-27T00:02:01;101660.66;;;8.04;80.43
21730;BME280;11027;51.030;13.812;2022-11-27T00:04:26;101651.50;;;8.05;80.32
21730;BME280;11027;51.030;13.812;2022-11-27T00:06:51;101654.94;;;8.07;80.18
21730;BME280;11027;51.030;13.812;2022-11-27T00:09:17;101658.66;;;8.06;80.26
21730;BME280;11027;51.030;13.812;2022-11-27T00:11:43;101650.66;;;8.05;80.23
21730;BME280;11027;51.030;13.812;2022-11-27T00:14:13;101655.22;;;8.04;80.44
21730;BME280;11027;51.030;13.812;2022-11-27T00:16:39;101656.19;;;8.03;80.58
21730;BME280;11027;51.030;13.812;2022-11-27T00:19:05;101657.94;;;8.04;80.51
21730;BME280;11027;51.030;13.812;2022-11-27T00:21:33;101650.03;;;8.01;80.83
21730;BME280;11027;51.030;13.812;2022-11-27T00:24:00;101643.63;;;8.02;80.75
21730;BME280;11027;51.030;13.812;2022-11-27T00:26:27;101635.72;;;7.99;80.76
21730;BME280;11027;51.030;13.812;2022-11-27T00:28:52;101628.59;;;7.98;81.16
21730;BME280;11027;51.030;13.812;2022-11-27T00:31:30;101623.53;;;7.93;81.17
21730;BME280;11027;51.030;13.812;2022-11-27T00:34:00;101621.09;;;7.90;81.49
21730;BME280;11027;51.030;13.812;2022-11-27T00:36:27;101622.22;;;7.88;81.46
21730;BME280;11027;51.030;13.812;2022-11-27T00:38:53;101620.72;;;7.84;81.59
21730;BME280;11027;51.030;13.812;2022-11-27T00:41:21;101628.38;;;7.78;81.61
21730;BME280;11027;51.030;13.812;2022-11-27T00:43:46;101631.72;;;7.71;81.52
21730;BME280;11027;51.030;13.812;2022-11-27T00:46:16;101632.84;;;7.68;81.23
21730;BME280;11027;51.030;13.812;2022-11-27T00:48:42;101634.44;;;7.71;81.16
21730;BME280;11027;51.030;13.812;2022-11-27T00:51:10;101631.59;;;7.72;80.90
21730;BME280;11027;51.030;13.812;2022-11-27T00:53:35;101626.91;;;7.74;80.94
21730;BME280;11027;51.030;13.812;2022-11-27T00:56:00;101626.91;;;7.74;80.40
21730;BME280;11027;51.030;13.812;2022-11-27T00:58:26;101630.88;;;7.70;80.46
21730;BME280;11027;51.030;13.812;2022-11-27T01:01:00;101630.53;;;7.64;80.58
21730;BME280;11027;51.030;13.812;2022-11-27T01:03:26;101635.94;;;7.64;80.49
21730;BME280;11027;51.030;13.812;2022-11-27T01:05:52;101644.19;;;7.62;80.54
21730;BME280;11027;51.030;13.812;2022-11-27T01:08:17;101635.34;;;7.60;80.69
21730;BME280;11027;51.030;13.812;2022-11-27T01:10:54;101625.72;;;7.56;80.74
21730;BME280;11027;51.030;13.812;2022-11-27T01:13:24;101618.69;;;7.53;80.61
21730;BME280;11027;51.030;13.812;2022-11-27T01:16:05;101618.09;;;7.50;80.80
21730;BME280;11027;51.030;13.812;2022-11-27T01:18:32;101611.44;;;7.43;81.03
21730;BME280;11027;51.030;13.812;2022-11-27T01:20:58;101616.84;;;7.43;81.36
21730;BME280;11027;51.030;13.812;2022-11-27T01:23:23;101606.00;;;7.43;81.10
21730;BME280;11027;51.030;13.812;2022-11-27T01:25:49;101608.72;;;7.43;81.17
21730;BME280;11027;51.030;13.812;2022-11-27T01:28:15;101602.81;;;7.37;81.07
21730;BME280;11027;51.030;13.812;2022-11-27T01:30:40;101597.91;;;7.31;81.29
21730;BME280;11027;51.030;13.812;2022-11-27T01:33:06;101597.28;;;7.28;81.53
21730;BME280;11027;51.030;13.812;2022-11-27T01:35:31;101596.78;;;7.22;81.72
21730;BME280;11027;51.030;13.812;2022-11-27T01:37:57;101595.91;;;7.22;81.85
21730;BME280;11027;51.030;13.812;2022-11-27T01:40:22;101584.09;;;7.23;81.57
21730;BME280;11027;51.030;13.812;2022-11-27T01:42:47;101589.53;;;7.23;81.39
21730;BME280;11027;51.030;13.812;2022-11-27T01:45:15;101584.34;;;7.20;81.33
21730;BME280;11027;51.030;13.812;2022-11-27T01:47:48;101577.19;;;7.19;81.69
21730;BME280;11027;51.030;13.812;2022-11-27T01:50:21;101577.44;;;7.16;81.48
21730;BME280;11027;51.030;13.812;2022-11-27T01:52:50;101562.91;;;7.06;81.53
21730;BME280;11027;51.030;13.812;2022-11-27T01:55:21;101564.38;;;6.98;81.53
21730;BME280;11027;51.030;13.812;2022-11-27T01:57:54;101562.66;;;6.97;81.75
21730;BME280;11027;51.030;13.812;2022-11-27T02:00:22;101564.38;;;6.98;81.77
21730;BME280;11027;51.030;13.812;2022-11-27T02:02:47;101565.38;;;6.97;81.83
21730;BME280;11027;51.030;13.812;2022-11-27T02:05:19;101557.75;;;6.91;81.76
21730;BME280;11027;51.030;13.812;2022-11-27T02:07:46;101545.03;;;6.80;81.85
21730;BME280;11027;51.030;13.812;2022-11-27T02:10:12;101544.69;;;6.74;81.99
21730;BME280;11027;51.030;13.812;2022-11-27T02:12:56;101542.56;;;6.66;82.00
21730;BME280;11027;51.030;13.812;2022-11-27T02:15:45;101548.13;;;6.65;82.02
21730;BME280;11027;51.030;13.812;2022-11-27T02:18:21;101544.78;;;6.61;81.83
21730;BME280;11027;51.030;13.812;2022-11-27T02:21:10;101544.16;;;6.57;82.13
21730;BME280;11027;51.030;13.812;2022-11-27T02:29:04;101537.50;;;6.50;81.98
21730;BME280;11027;51.030;13.812;2022-11-27T02:34:15;101528.75;;;6.35;82.04
21730;BME280;11027;51.030;13.812;2022-11-27T02:36:48;101523.59;;;6.32;82.24
21730;BME280;11027;51.030;13.812;2022-11-27T02:39:19;101535.50;;;6.30;82.36
21730;BME280;11027;51.030;13.812;2022-11-27T02:41:51;101518.50;;;6.16;82.21
21730;BME280;11027;51.030;13.812;2022-11-27T02:44:19;101524.38;;;6.10;82.36
21730;BME280;11027;51.030;13.812;2022-11-27T02:46:47;101528.06;;;6.09;82.43
21730;BME280;11027;51.030;13.812;2022-11-27T02:49:15;101529.81;;;6.10;82.37
21730;BME280;11027;51.030;13.812;2022-11-27T02:51:50;101527.44;;;6.06;82.46
21730;BME280;11027;51.030;13.812;2022-11-27T02:54:21;101538.16;;;6.07;82.55
21730;BME280;11027;51.030;13.812;2022-11-27T02:56:50;101540.09;;;6.05;82.32
21730;BME280;11027;51.030;13.812;2022-11-27T02:59:17;101528.78;;;6.00;82.48
21730;BME280;11027;51.030;13.812;2022-11-27T03:01:47;101537.34;;;5.94;82.44
21730;BME280;11027;51.030;13.812;2022-11-27T03:04:18;101538.31;;;5.93;82.52
21730;BME280;11027;51.030;13.812;2022-11-27T03:06:51;101534.84;;;5.91;82.57
21730;BME280;11027;51.030;13.812;2022-11-27T03:09:31;101542.22;;;5.89;82.77
21730;BME280;11027;51.030;13.812;2022-11-27T03:11:58;101542.44;;;5.86;83.04
21730;BME280;11027;51.030;13.812;2022-11-27T03:14:24;101537.28;;;5.82;83.09
21730;BME280;11027;51.030;13.812;2022-11-27T03:17:05;101547.34;;;5.80;82.88
21730;BME280;11027;51.030;13.812;2022-11-27T03:22:09;101555.56;;;5.79;82.95
21730;BME280;11027;51.030;13.812;2022-11-27T03:24:35;101559.13;;;5.79;83.12
21730;BME280;11027;51.030;13.812;2022-11-27T03:27:01;101555.47;;;5.80;83.23
21730;BME280;11027;51.030;13.812;2022-11-27T03:29:52;101544.41;;;5.84;83.11
21730;BME280;11027;51.030;13.812;2022-11-27T03:32:19;101548.31;;;5.79;82.81
21730;BME280;11027;51.030;13.812;2022-11-27T03:34:46;101542.06;;;5.79;82.88
21730;BME280;11027;51.030;13.812;2022-11-27T03:37:11;101543.16;;;5.76;82.72
21730;BME280;11027;51.030;13.812;2022-11-27T03:39:37;101543.63;;;5.70;82.75
21730;BME280;11027;51.030;13.812;2022-11-27T03:42:58;101547.53;;;5.66;82.79
21730;BME280;11027;51.030;13.812;2022-11-27T03:45:26;101542.59;;;5.60;82.89
21730;BME280;11027;51.030;13.812;2022-11-27T03:53:46;101529.47;;;5.43;83.04
21730;BME280;11027;51.030;13.812;2022-11-27T03:56:35;101528.06;;;5.37;82.92
21730;BME280;11027;51.030;13.812;2022-11-27T03:59:15;101525.81;;;5.31;82.50
21730;BME280;11027;51.030;13.812;2022-11-27T04:01:44;101536.22;;;5.24;82.21
21730;BME280;11027;51.030;13.812;2022-11-27T04:04:09;101522.41;;;5.16;81.94
21730;BME280;11027;51.030;13.812;2022-11-27T04:06:35;101526.53;;;5.09;81.88
21730;BME280;11027;51.030;13.812;2022-11-27T04:09:00;101520.28;;;5.08;81.92
21730;BME280;11027;51.030;13.812;2022-11-27T04:11:25;101522.00;;;5.09;82.02
21730;BME280;11027;51.030;13.812;2022-11-27T04:13:51;101529.97;;;5.11;82.08
21730;BME280;11027;51.030;13.812;2022-11-27T04:16:17;101529.03;;;5.12;82.22
21730;BME280;11027;51.030;13.812;2022-11-27T04:18:43;101523.81;;;5.09;82.30
21730;BME280;11027;51.030;13.812;2022-11-27T04:21:08;101532.16;;;5.06;82.05
21730;BME280;11027;51.030;13.812;2022-11-27T04:23:33;101531.97;;;4.96;81.85
21730;BME280;11027;51.030;13.812;2022-11-27T04:25:59;101519.00;;;4.88;82.00
21730;BME280;11027;51.030;13.812;2022-11-27T04:28:24;101528.31;;;4.84;82.14
21730;BME280;11027;51.030;13.812;2022-11-27T04:30:51;101526.81;;;4.80;82.13
21730;BME280;11027;51.030;13.812;2022-11-27T04:33:17;101529.75;;;4.77;82.56
21730;BME280;11027;51.030;13.812;2022-11-27T04:35:42;101537.19;;;4.73;82.87
21730;BME280;11027;51.030;13.812;2022-11-27T04:38:07;101537.19;;;4.73;82.83
21730;BME280;11027;51.030;13.812;2022-11-27T04:40:33;101543.69;;;4.71;82.72
21730;BME280;11027;51.030;13.812;2022-11-27T04:42:58;101533.09;;;4.68;82.76
21730;BME280;11027;51.030;13.812;2022-11-27T04:45:23;101533.41;;;4.63;82.74
21730;BME280;11027;51.030;13.812;2022-11-27T04:47:48;101542.63;;;4.60;82.96
21730;BME280;11027;51.030;13.812;2022-11-27T04:50:14;101535.47;;;4.59;82.88
21730;BME280;11027;51.030;13.812;2022-11-27T04:52:39;101544.44;;;4.60;82.79
21730;BME280;11027;51.030;13.812;2022-11-27T04:55:05;101534.50;;;4.60;82.69
21730;BME280;11027;51.030;13.812;2022-11-27T04:57:30;101543.66;;;4.58;82.68
21730;BME280;11027;51.030;13.812;2022-11-27T04:59:56;101542.81;;;4.57;82.71
21730;BME280;11027;51.030;13.812;2022-11-27T05:02:21;101530.50;;;4.53;82.92
21730;BME280;11027;51.030;13.812;2022-11-27T05:04:46;101539.13;;;4.46;83.11
21730;BME280;11027;51.030;13.812;2022-11-27T05:07:12;101535.69;;;4.44;83.56
21730;BME280;11027;51.030;13.812;2022-11-27T05:09:37;101527.69;;;4.42;83.92
21730;BME280;11027;51.030;13.812;2022-11-27T05:12:02;101527.47;;;4.45;84.17
21730;BME280;11027;51.030;13.812;2022-11-27T05:14:28;101529.44;;;4.43;84.22
21730;BME280;11027;51.030;13.812;2022-11-27T05:16:56;101523.28;;;4.41;84.48
21730;BME280;11027;51.030;13.812;2022-11-27T05:19:25;101536.78;;;4.41;84.79
21730;BME280;11027;51.030;13.812;2022-11-27T05:21:51;101538.38;;;4.44;84.91
21730;BME280;11027;51.030;13.812;2022-11-27T05:24:18;101541.72;;;4.47;84.91
21730;BME280;11027;51.030;13.812;2022-11-27T05:26:44;101546.91;;;4.50;84.85
21730;BME280;11027;51.030;13.812;2022-11-27T05:29:10;101545.19;;;4.49;84.82
21730;BME280;11027;51.030;13.812;2022-11-27T05:31:36;101543.44;;;4.48;84.73
21730;BME280;11027;51.030;13.812;2022-11-27T05:34:02;101546.47;;;4.44;84.52
21730;BME280;11027;51.030;13.812;2022-11-27T05:36:27;101554.91;;;4.39;84.44
21730;BME280;11027;51.030;13.812;2022-11-27T05:38:53;101553.16;;;4.38;84.60
21730;BME280;11027;51.030;13.812;2022-11-27T05:41:19;101560.41;;;4.37;84.32
21730;BME280;11027;51.030;13.812;2022-11-27T05:43:44;101555.09;;;4.36;84.20
21730;BME280;11027;51.030;13.812;2022-11-27T05:46:12;101551.66;;;4.34;83.93
21730;BME280;11027;51.030;13.812;2022-11-27T05:48:38;101541.09;;;4.31;84.12
21730;BME280;11027;51.030;13.812;2022-11-27T05:51:04;101551.13;;;4.29;84.07
21730;BME280;11027;51.030;13.812;2022-11-27T05:53:29;101543.22;;;4.26;84.09
21730;BME280;11027;51.030;13.812;2022-11-27T05:56:00;101546.25;;;4.21;84.15
21730;BME280;11027;51.030;13.812;2022-11-27T05:58:26;101552.72;;;4.18;84.19
21730;BME280;11027;51.030;13.812;2022-11-27T06:00:51;101547.44;;;4.17;84.44
21730;BME280;11027;51.030;13.812;2022-11-27T06:03:17;101547.97;;;4.22;84.21
21730;BME280;11027;51.030;13.812;2022-11-27T06:05:42;101547.34;;;4.18;84.24
21730;BME280;11027;51.030;13.812;2022-11-27T06:08:08;101539.34;;;4.17;84.46
21730;BME280;11027;51.030;13.812;2022-11-27T06:10:33;101539.34;;;4.17;84.68
21730;BME280;11027;51.030;13.812;2022-11-27T06:12:58;101540.19;;;4.17;84.81
21730;BME280;11027;51.030;13.812;2022-11-27T06:15:23;101530.47;;;4.15;85.01
21730;BME280;11027;51.030;13.812;2022-11-27T06:17:49;101534.13;;;4.14;85.22
21730;BME280;11027;51.030;13.812;2022-11-27T06:20:15;101531.34;;;4.15;85.63
21730;BME280;11027;51.030;13.812;2022-11-27T06:22:40;101530.16;;;4.19;85.81
21730;BME280;11027;51.030;13.812;2022-11-27T06:25:06;101538.06;;;4.23;85.95
21730;BME280;11027;51.030;13.812;2022-11-27T06:27:33;101531.66;;;4.24;86.27
21730;BME280;11027;51.030;13.812;2022-11-27T06:29:58;101530.50;;;4.28;86.44
21730;BME280;11027;51.030;13.812;2022-11-27T06:32:24;101527.69;;;4.29;86.68
21730;BME280;11027;51.030;13.812;2022-11-27T06:34:49;101517.75;;;4.30;86.85
21730;BME280;11027;51.030;13.812;2022-11-27T06:37:14;101523.91;;;4.32;86.98
21730;BME280;11027;51.030;13.812;2022-11-27T06:39:39;101519.25;;;4.34;87.23
21730;BME280;11027;51.030;13.812;2022-11-27T06:42:05;101523.38;;;4.39;87.34
21730;BME280;11027;51.030;13.812;2022-11-27T06:44:30;101515.06;;;4.43;87.44
21730;BME280;11027;51.030;13.812;2022-11-27T06:46:55;101518.41;;;4.46;87.26
21730;BME280;11027;51.030;13.812;2022-11-27T06:49:21;101509.53;;;4.44;87.61
21730;BME280;11027;51.030;13.812;2022-11-27T06:51:47;101508.78;;;4.42;87.86
21730;BME280;11027;51.030;13.812;2022-11-27T06:54:12;101505.13;;;4.43;87.79
21730;BME280;11027;51.030;13.812;2022-11-27T06:56:38;101503.94;;;4.47;88.10
21730;BME280;11027;51.030;13.812;2022-11-27T06:59:03;101497.47;;;4.50;88.15
21730;BME280;11027;51.030;13.812;2022-11-27T07:01:29;101500.06;;;4.51;88.13
21730;BME280;11027;51.030;13.812;2022-11-27T07:03:55;101497.25;;;4.53;88.08
21730;BME280;11027;51.030;13.812;2022-11-27T07:06:23;101497.88;;;4.56;88.20
21730;BME280;11027;51.030;13.812;2022-11-27T07:08:48;101498.78;;;4.57;88.02
21730;BME280;11027;51.030;13.812;2022-11-27T07:11:16;101498.13;;;4.53;88.05
21730;BME280;11027;51.030;13.812;2022-11-27T07:13:43;101500.06;;;4.51;88.30
21730;BME280;11027;51.030;13.812;2022-11-27T07:16:09;101489.16;;;4.53;88.24
21730;BME280;11027;51.030;13.812;2022-11-27T07:18:37;101495.63;;;4.63;88.11
21730;BME280;11027;51.030;13.812;2022-11-27T07:21:03;101497.25;;;4.66;88.01
21730;BME280;11027;51.030;13.812;2022-11-27T07:23:29;101498.84;;;4.68;87.88
21730;BME280;11027;51.030;13.812;2022-11-27T07:25:54;101500.69;;;4.68;87.83
21730;BME280;11027;51.030;13.812;2022-11-27T07:28:19;101505.88;;;4.71;87.83
21730;BME280;11027;51.030;13.812;2022-11-27T07:30:53;101511.28;;;4.71;87.87
21730;BME280;11027;51.030;13.812;2022-11-27T07:33:18;101515.78;;;4.70;87.86
21730;BME280;11027;51.030;13.812;2022-11-27T07:35:43;101514.19;;;4.68;87.90
21730;BME280;11027;51.030;13.812;2022-11-27T07:38:09;101504.13;;;4.70;87.92
21730;BME280;11027;51.030;13.812;2022-11-27T07:40:34;101515.03;;;4.68;87.93
21730;BME280;11027;51.030;13.812;2022-11-27T07:42:59;101514.94;;;4.70;88.37
21730;BME280;11027;51.030;13.812;2022-11-27T07:45:24;101517.44;;;4.73;88.75
21730;BME280;11027;51.030;13.812;2022-11-27T07:47:50;101513.31;;;4.80;88.40
21730;BME280;11027;51.030;13.812;2022-11-27T07:50:16;101513.63;;;4.88;88.52
21730;BME280;11027;51.030;13.812;2022-11-27T07:52:41;101497.19;;;4.91;88.29
21730;BME280;11027;51.030;13.812;2022-11-27T07:55:07;101499.81;;;4.93;88.42
21730;BME280;11027;51.030;13.812;2022-11-27T07:57:33;101479.69;;;4.97;88.50
21730;BME280;11027;51.030;13.812;2022-11-27T07:59:58;101472.97;;;5.03;88.53
21730;BME280;11027;51.030;13.812;2022-11-27T08:02:23;101467.34;;;5.06;88.41
21730;BME280;11027;51.030;13.812;2022-11-27T08:04:48;101469.06;;;5.07;88.24
21730;BME280;11027;51.030;13.812;2022-11-27T08:07:14;101463.19;;;5.13;88.41
21730;BME280;11027;51.030;13.812;2022-11-27T08:09:39;101459.81;;;5.22;88.37
21730;BME280;11027;51.030;13.812;2022-11-27T08:12:05;101455.84;;;5.39;88.46
21730;BME280;11027;51.030;13.812;2022-11-27T08:14:31;101457.28;;;5.56;88.42
21730;BME280;11027;51.030;13.812;2022-11-27T08:16:56;101455.22;;;5.59;88.24
21730;BME280;11027;51.030;13.812;2022-11-27T08:19:22;101448.75;;;5.49;87.55
21730;BME280;11027;51.030;13.812;2022-11-27T08:21:47;101446.66;;;5.41;87.43
21730;BME280;11027;51.030;13.812;2022-11-27T08:24:12;101447.13;;;5.35;87.31
21730;BME280;11027;51.030;13.812;2022-11-27T08:26:38;101447.34;;;5.32;87.17
21730;BME280;11027;51.030;13.812;2022-11-27T08:29:04;101452.75;;;5.32;87.19
21730;BME280;11027;51.030;13.812;2022-11-27T08:31:31;101445.16;;;5.37;87.36
21730;BME280;11027;51.030;13.812;2022-11-27T08:33:57;101442.31;;;5.39;87.26
21730;BME280;11027;51.030;13.812;2022-11-27T08:36:26;101444.91;;;5.40;87.33
21730;BME280;11027;51.030;13.812;2022-11-27T08:38:53;101435.84;;;5.41;87.52
21730;BME280;11027;51.030;13.812;2022-11-27T08:41:18;101435.59;;;5.45;87.50
21730;BME280;11027;51.030;13.812;2022-11-27T08:43:44;101431.56;;;5.50;87.59
21730;BME280;11027;51.030;13.812;2022-11-27T08:46:09;101447.22;;;5.58;87.51
21730;BME280;11027;51.030;13.812;2022-11-27T08:48:34;101450.41;;;5.63;87.54
21730;BME280;11027;51.030;13.812;2022-11-27T08:51:04;101450.66;;;5.60;87.29
21730;BME280;11027;51.030;13.812;2022-11-27T08:53:30;101446.34;;;5.57;87.44
21730;BME280;11027;51.030;13.812;2022-11-27T08:56:04;101441.81;;;5.58;87.40
21730;BME280;11027;51.030;13.812;2022-11-27T08:58:29;101440.06;;;5.57;87.62
21730;BME280;11027;51.030;13.812;2022-11-27T09:00:54;101440.06;;;5.57;87.77
21730;BME280;11027;51.030;13.812;2022-11-27T09:03:20;101435.66;;;5.56;87.77
21730;BME280;11027;51.030;13.812;2022-11-27T09:05:45;101441.06;;;5.56;87.97
21730;BME280;11027;51.030;13.812;2022-11-27T09:08:10;101446.97;;;5.61;88.08
21730;BME280;11027;51.030;13.812;2022-11-27T09:10:40;101446.50;;;5.67;88.05
21730;BME280;11027;51.030;13.812;2022-11-27T09:13:05;101442.81;;;5.68;88.12
21730;BME280;11027;51.030;13.812;2022-11-27T09:15:31;101434.81;;;5.67;87.97
21730;BME280;11027;51.030;13.812;2022-11-27T09:17:56;101432.22;;;5.65;88.07
21730;BME280;11027;51.030;13.812;2022-11-27T09:20:22;101429.53;;;5.65;88.02
21730;BME280;11027;51.030;13.812;2022-11-27T09:22:47;101423.38;;;5.63;87.94
21730;BME280;11027;51.030;13.812;2022-11-27T09:25:12;101434.44;;;5.60;88.13
21730;BME280;11027;51.030;13.812;2022-11-27T09:27:38;101424.94;;;5.54;88.63
21730;BME280;11027;51.030;13.812;2022-11-27T09:30:05;101420.88;;;5.49;88.67
21730;BME280;11027;51.030;13.812;2022-11-27T09:32:31;101411.81;;;5.50;88.82
21730;BME280;11027;51.030;13.812;2022-11-27T09:34:56;101406.13;;;5.53;89.07
21730;BME280;11027;51.030;13.812;2022-11-27T09:37:22;101407.88;;;5.54;89.31
21730;BME280;11027;51.030;13.812;2022-11-27T09:39:47;101402.22;;;5.57;89.54
21730;BME280;11027;51.030;13.812;2022-11-27T09:42:33;101394.00;;;5.58;89.79
21730;BME280;11027;51.030;13.812;2022-11-27T09:45:02;101393.41;;;5.66;89.96
21730;BME280;11027;51.030;13.812;2022-11-27T09:47:37;101374.00;;;5.72;90.06
21730;BME280;11027;51.030;13.812;2022-11-27T09:50:25;101373.53;;;5.78;89.90
21730;BME280;11027;51.030;13.812;2022-11-27T09:53:05;101363.44;;;5.80;90.19
21730;BME280;11027;51.030;13.812;2022-11-27T09:55:45;101353.09;;;5.86;90.63
21730;BME280;11027;51.030;13.812;2022-11-27T09:58:17;101355.34;;;5.92;90.81
21730;BME280;11027;51.030;13.812;2022-11-27T10:00:46;101350.47;;;5.97;90.84
21730;BME280;11027;51.030;13.812;2022-11-27T10:03:13;101346.53;;;6.01;91.03
21730;BME280;11027;51.030;13.812;2022-11-27T10:06:02;101340.88;;;6.04;91.12
21730;BME280;11027;51.030;13.812;2022-11-27T10:08:47;101334.09;;;6.10;91.01
21730;BME280;11027;51.030;13.812;2022-11-27T10:11:28;101325.38;;;6.17;91.08
21730;BME280;11027;51.030;13.812;2022-11-27T10:14:09;101324.88;;;6.24;90.97
21730;BME280;11027;51.030;13.812;2022-11-27T10:16:53;101318.97;;;6.30;90.78
21730;BME280;11027;51.030;13.812;2022-11-27T10:21:58;101312.53;;;6.42;89.91
21730;BME280;11027;51.030;13.812;2022-11-27T10:24:40;101305.66;;;6.49;89.98
21730;BME280;11027;51.030;13.812;2022-11-27T10:27:21;101307.63;;;6.58;89.35
21730;BME280;11027;51.030;13.812;2022-11-27T10:29:52;101303.38;;;6.66;89.23
21730;BME280;11027;51.030;13.812;2022-11-27T10:32:21;101304.63;;;6.73;89.06
21730;BME280;11027;51.030;13.812;2022-11-27T10:34:52;101296.94;;;6.78;88.61
21730;BME280;11027;51.030;13.812;2022-11-27T10:37:35;101298.16;;;6.85;88.21
21730;BME280;11027;51.030;13.812;2022-11-27T10:40:14;101301.09;;;6.93;87.21
21730;BME280;11027;51.030;13.812;2022-11-27T10:43:16;101291.44;;;7.00;86.40
21730;BME280;11027;51.030;13.812;2022-11-27T10:45:51;101291.06;;;7.05;85.62
21730;BME280;11027;51.030;13.812;2022-11-27T10:48:18;101292.66;;;7.08;84.92
21730;BME280;11027;51.030;13.812;2022-11-27T10:50:44;101292.38;;;7.11;84.05
21730;BME280;11027;51.030;13.812;2022-11-27T10:53:20;101283.13;;;7.13;83.05
21730;BME280;11027;51.030;13.812;2022-11-27T11:01:17;101273.22;;;7.24;82.16
21730;BME280;11027;51.030;13.812;2022-11-27T11:03:42;101271.84;;;7.29;81.96
21730;BME280;11027;51.030;13.812;2022-11-27T11:06:14;101272.56;;;7.31;81.86
21730;BME280;11027;51.030;13.812;2022-11-27T11:08:40;101271.31;;;7.35;81.53
21730;BME280;11027;51.030;13.812;2022-11-27T11:11:07;101267.47;;;7.38;80.94
21730;BME280;11027;51.030;13.812;2022-11-27T11:13:43;101268.06;;;7.41;80.55
21730;BME280;11027;51.030;13.812;2022-11-27T11:18:43;101272.41;;;7.54;79.70
21730;BME280;11027;51.030;13.812;2022-11-27T11:21:32;101265.59;;;7.59;79.80
21730;BME280;11027;51.030;13.812;2022-11-27T11:26:48;101255.38;;;7.73;79.28
21730;BME280;11027;51.030;13.812;2022-11-27T11:29:39;101270.13;;;7.80;78.19
21730;BME280;11027;51.030;13.812;2022-11-27T11:32:11;101261.31;;;7.88;78.29
21730;BME280;11027;51.030;13.812;2022-11-27T11:34:47;101272.34;;;7.96;78.31
21730;BME280;11027;51.030;13.812;2022-11-27T11:37:25;101265.09;;;8.06;78.17
21730;BME280;11027;51.030;13.812;2022-11-27T11:39:59;101273.25;;;8.16;77.96
21730;BME280;11027;51.030;13.812;2022-11-27T11:42:31;101273.56;;;8.23;77.71
21730;BME280;11027;51.030;13.812;2022-11-27T11:47:28;101280.78;;;8.43;77.05
21730;BME280;11027;51.030;13.812;2022-11-27T11:49:54;101265.66;;;8.60;76.73
21730;BME280;11027;51.030;13.812;2022-11-27T11:52:54;101254.69;;;8.81;76.33
21730;BME280;11027;51.030;13.812;2022-11-27T11:55:25;101256.53;;;9.10;76.01
21730;BME280;11027;51.030;13.812;2022-11-27T12:00:47;101260.81;;;9.32;74.28
21730;BME280;11027;51.030;13.812;2022-11-27T12:11:13;101249.94;;;9.02;72.01
21730;BME280;11027;51.030;13.812;2022-11-27T12:16:23;101241.78;;;9.02;71.34
21730;BME280;11027;51.030;13.812;2022-11-27T12:19:09;101238.78;;;9.06;71.53
21730;BME280;11027;51.030;13.812;2022-11-27T12:21:51;101240.22;;;9.10;71.32
21730;BME280;11027;51.030;13.812;2022-11-27T12:24:25;101236.22;;;9.14;70.81
21730;BME280;11027;51.030;13.812;2022-11-27T12:30:04;101242.22;;;9.27;70.27
21730;BME280;11027;51.030;13.812;2022-11-27T12:32:41;101229.88;;;9.33;70.04
21730;BME280;11027;51.030;13.812;2022-11-27T12:43:26;101211.13;;;9.67;69.02
21730;BME280;11027;51.030;13.812;2022-11-27T12:48:36;101195.63;;;9.77;68.79
21730;BME280;11027;51.030;13.812;2022-11-27T12:51:07;101194.19;;;9.83;68.32
21730;BME280;11027;51.030;13.812;2022-11-27T12:53:40;101192.72;;;9.89;68.01
21730;BME280;11027;51.030;13.812;2022-11-27T12:56:33;101188.53;;;9.94;67.44
21730;BME280;11027;51.030;13.812;2022-11-27T12:59:15;101185.69;;;9.96;67.33
21730;BME280;11027;51.030;13.812;2022-11-27T13:01:47;101182.50;;;10.00;67.47
21730;BME280;11027;51.030;13.812;2022-11-27T13:04:26;101181.19;;;10.05;66.98
21730;BME280;11027;51.030;13.812;2022-11-27T13:07:02;101161.66;;;10.09;66.75
21730;BME280;11027;51.030;13.812;2022-11-27T13:09:49;101170.22;;;10.14;66.72
21730;BME280;11027;51.030;13.812;2022-11-27T13:12:31;101162.75;;;10.16;65.87
21730;BME280;11027;51.030;13.812;2022-11-27T13:15:06;101155.84;;;10.22;65.79
21730;BME280;11027;51.030;13.812;2022-11-27T13:17:41;101146.91;;;10.30;65.57
21730;BME280;11027;51.030;13.812;2022-11-27T13:20:14;101138.28;;;10.34;64.64
21730;BME280;11027;51.030;13.812;2022-11-27T13:22:42;101135.94;;;10.39;64.51
21730;BME280;11027;51.030;13.812;2022-11-27T13:25:11;101131.34;;;10.40;63.98
21730;BME280;11027;51.030;13.812;2022-11-27T13:27:41;101125.25;;;10.46;63.52
21730;BME280;11027;51.030;13.812;2022-11-27T13:30:23;101120.91;;;10.53;63.26
21730;BME280;11027;51.030;13.812;2022-11-27T13:32:58;101128.38;;;10.69;62.71
21730;BME280;11027;51.030;13.812;2022-11-27T13:35:41;101117.66;;;10.94;61.64
21730;BME280;11027;51.030;13.812;2022-11-27T13:38:13;101109.97;;;11.15;60.90
21730;BME280;11027;51.030;13.812;2022-11-27T13:40:46;101105.13;;;11.35;60.72
21730;BME280;11027;51.030;13.812;2022-11-27T13:43:45;101106.91;;;11.61;59.49
21730;BME280;11027;51.030;13.812;2022-11-27T13:46:19;101096.84;;;11.96;58.91
21730;BME280;11027;51.030;13.812;2022-11-27T13:49:04;101088.03;;;12.35;57.63
21730;BME280;11027;51.030;13.812;2022-11-27T13:51:35;101092.47;;;12.60;56.46
21730;BME280;11027;51.030;13.812;2022-11-27T13:54:12;101099.28;;;12.73;56.10
21730;BME280;11027;51.030;13.812;2022-11-27T13:56:38;101095.50;;;12.82;55.92
21730;BME280;11027;51.030;13.812;2022-11-27T13:59:13;101088.88;;;12.85;55.11
21730;BME280;11027;51.030;13.812;2022-11-27T14:01:39;101093.13;;;12.87;54.98
21730;BME280;11027;51.030;13.812;2022-11-27T14:04:08;101095.00;;;12.87;54.60